createdAt,value
2022-10-21T00:01:05.554Z,101779.84
2022-10-21T00:03:33.827Z,101780.06
2022-10-21T00:06:02.380Z,101788.75
2022-10-21T00:08:30.592Z,101792.09
2022-10-21T00:11:01.380Z,101798.09
2022-10-21T00:13:33.223Z,101793.00
2022-10-21T00:16:03.135Z,101800.22
2022-10-21T00:18:32.514Z,101802.66
2022-10-21T00:21:00.456Z,101803.69
2022-10-21T00:23:28.910Z,101794.22
2022-10-21T00:26:00.548Z,101800.69
2022-10-21T00:28:30.462Z,101786.44
2022-10-21T00:30:59.066Z,101789.75
2022-10-21T00:33:28.504Z,101777.16
2022-10-21T00:35:58.903Z,101778.91
2022-10-21T00:38:27.542Z,101775.44
2022-10-21T00:40:55.863Z,101772.13
2022-10-21T00:43:24.537Z,101776.22
2022-10-21T00:45:57.355Z,101770.00
2022-10-21T00:48:33.074Z,101777.22
2022-10-21T00:51:05.144Z,101776.69
2022-10-21T00:53:35.072Z,101773.44
2022-10-21T00:56:07.508Z,101777.69
2022-10-21T00:58:37.495Z,101786.63
2022-10-21T01:01:09.768Z,101780.75
2022-10-21T01:03:37.926Z,101797.81
2022-10-21T01:06:10.180Z,101785.22
2022-10-21T01:08:38.747Z,101781.69
2022-10-21T01:11:12.066Z,101782.28
2022-10-21T01:13:52.184Z,101776.03
2022-10-21T01:16:32.839Z,101779.47
2022-10-21T01:19:08.341Z,101783.19
2022-10-21T01:21:41.268Z,101776.16
2022-10-21T01:24:37.622Z,101778.22
2022-10-21T01:27:23.113Z,101776.53
2022-10-21T01:30:16.110Z,101768.22
2022-10-21T01:33:22.109Z,101764.28
2022-10-21T01:35:57.482Z,101763.78
2022-10-21T01:38:35.507Z,101763.03
2022-10-21T01:41:11.505Z,101764.50
2022-10-21T01:43:47.364Z,101761.19
2022-10-21T01:46:19.382Z,101758.97
2022-10-21T01:48:52.320Z,101764.72
2022-10-21T01:51:21.918Z,101768.53
2022-10-21T01:53:54.587Z,101777.69
2022-10-21T01:56:24.499Z,101782.47
2022-10-21T01:58:54.617Z,101780.19
2022-10-21T02:01:24.216Z,101782.19
2022-10-21T02:03:58.863Z,101782.69
2022-10-21T02:06:26.995Z,101779.69
2022-10-21T02:08:55.143Z,101781.03
2022-10-21T02:11:23.868Z,101786.16
2022-10-21T02:13:57.622Z,101776.84
2022-10-21T02:16:30.377Z,101780.72
2022-10-21T02:19:01.775Z,101783.34
2022-10-21T02:21:32.435Z,101776.75
2022-10-21T02:24:06.406Z,101782.00
2022-10-21T02:26:34.387Z,101774.03
2022-10-21T02:29:02.871Z,101781.84
2022-10-21T02:31:49.875Z,101782.72
2022-10-21T02:34:31.390Z,101791.13
2022-10-21T02:37:09.795Z,101797.59
2022-10-21T02:39:44.560Z,101802.84
2022-10-21T02:42:17.955Z,101807.41
2022-10-21T02:44:45.884Z,101804.41
2022-10-21T02:47:14.013Z,101805.22
2022-10-21T02:49:44.923Z,101810.94
2022-10-21T02:52:13.030Z,101819.06
2022-10-21T02:54:41.060Z,101817.41
2022-10-21T02:57:09.063Z,101809.75
2022-10-21T02:59:37.114Z,101810.19
2022-10-21T03:02:05.758Z,101809.94
2022-10-21T03:04:33.942Z,101810.91
2022-10-21T03:07:03.644Z,101810.34
2022-10-21T03:09:32.014Z,101805.47
2022-10-21T03:12:00.012Z,101806.03
2022-10-21T03:14:28.328Z,101808.06
2022-10-21T03:16:56.418Z,101805.53
2022-10-21T03:19:24.329Z,101800.84
2022-10-21T03:21:52.418Z,101805.75
2022-10-21T03:24:28.796Z,101806.16
2022-10-21T03:26:57.626Z,101806.31
2022-10-21T03:29:26.128Z,101803.25
2022-10-21T03:31:54.406Z,101805.94
2022-10-21T03:34:22.413Z,101805.59
2022-10-21T03:36:50.629Z,101811.72
2022-10-21T03:39:18.685Z,101801.50
2022-10-21T03:41:48.173Z,101811.41
2022-10-21T03:44:16.193Z,101800.72
2022-10-21T03:46:44.113Z,101799.72
2022-10-21T03:49:18.307Z,101805.75
2022-10-21T03:51:49.414Z,101799.69
2022-10-21T03:54:18.203Z,101797.44
2022-10-21T03:56:48.259Z,101789.69
2022-10-21T03:59:16.666Z,101801.34
2022-10-21T04:01:45.172Z,101796.38
2022-10-21T04:04:13.345Z,101790.25
2022-10-21T04:06:41.719Z,101784.34
2022-10-21T04:09:09.718Z,101782.56
2022-10-21T04:11:37.991Z,101784.19
2022-10-21T04:14:11.445Z,101786.81
2022-10-21T04:16:43.174Z,101784.34
2022-10-21T04:19:17.585Z,101787.06
2022-10-21T04:21:46.136Z,101780.63
2022-10-21T04:24:14.883Z,101786.50
2022-10-21T04:26:43.234Z,101785.63
2022-10-21T04:29:12.867Z,101783.22
2022-10-21T04:31:41.191Z,101789.25
2022-10-21T04:34:09.319Z,101774.25
2022-10-21T04:36:37.314Z,101781.91
2022-10-21T04:39:05.888Z,101784.84
2022-10-21T04:41:33.896Z,101775.38
2022-10-21T04:44:02.811Z,101774.41
2022-10-21T04:46:32.210Z,101789.25
2022-10-21T04:49:00.467Z,101782.44
2022-10-21T04:51:28.793Z,101785.69
2022-10-21T04:53:57.197Z,101779.06
2022-10-21T04:56:25.212Z,101780.78
2022-10-21T04:58:53.304Z,101792.75
2022-10-21T05:01:21.445Z,101790.81
2022-10-21T05:03:51.031Z,101796.78
2022-10-21T05:06:19.019Z,101796.09
2022-10-21T05:08:47.052Z,101786.91
2022-10-21T05:11:15.367Z,101792.19
2022-10-21T05:13:43.426Z,101793.13
2022-10-21T05:16:11.357Z,101807.91
2022-10-21T05:18:39.306Z,101800.09
2022-10-21T05:21:08.789Z,101792.47
2022-10-21T05:23:36.757Z,101800.69
2022-10-21T05:26:04.895Z,101808.97
2022-10-21T05:28:32.887Z,101812.91
2022-10-21T05:31:01.058Z,101810.75
2022-10-21T05:33:29.290Z,101808.97
2022-10-21T05:35:58.879Z,101810.44
2022-10-21T05:38:28.675Z,101811.94
2022-10-21T05:40:56.858Z,101813.25
2022-10-21T05:43:25.438Z,101813.47
2022-10-21T05:45:53.470Z,101809.03
2022-10-21T05:48:21.406Z,101823.19
2022-10-21T05:50:52.422Z,101821.25
2022-10-21T05:53:20.625Z,101834.22
2022-10-21T05:55:57.484Z,101813.72
2022-10-21T05:58:26.272Z,101827.16
2022-10-21T06:00:55.488Z,101831.00
2022-10-21T06:03:23.947Z,101829.84
2022-10-21T06:05:52.078Z,101830.13
2022-10-21T06:08:20.340Z,101827.22
2022-10-21T06:10:48.298Z,101832.47
2022-10-21T06:13:17.735Z,101835.28
2022-10-21T06:15:48.839Z,101832.75
2022-10-21T06:18:19.002Z,101831.53
2022-10-21T06:20:47.334Z,101826.94
2022-10-21T06:23:16.435Z,101833.06
2022-10-21T06:25:45.176Z,101825.91
2022-10-21T06:28:13.487Z,101833.50
2022-10-21T06:30:43.014Z,101840.13
2022-10-21T06:33:11.394Z,101828.44
2022-10-21T06:35:39.557Z,101813.59
2022-10-21T06:38:07.673Z,101827.03
2022-10-21T06:40:35.776Z,101828.66
2022-10-21T06:43:03.846Z,101828.97
2022-10-21T06:45:31.865Z,101826.63
2022-10-21T06:48:01.630Z,101828.78
2022-10-21T06:50:29.842Z,101811.28
2022-10-21T06:52:57.969Z,101828.25
2022-10-21T06:55:25.978Z,101831.19
2022-10-21T06:57:54.071Z,101829.72
2022-10-21T07:00:22.274Z,101824.63
2022-10-21T07:02:50.623Z,101821.78
2022-10-21T07:05:20.854Z,101826.19
2022-10-21T07:07:48.954Z,101810.25
2022-10-21T07:10:17.214Z,101816.91
2022-10-21T07:12:46.808Z,101820.94
2022-10-21T07:15:14.922Z,101817.72
2022-10-21T07:17:43.010Z,101808.66
2022-10-21T07:20:11.751Z,101811.06
2022-10-21T07:22:41.180Z,101817.38
2022-10-21T07:25:09.725Z,101811.06
2022-10-21T07:27:38.254Z,101807.31
2022-10-21T07:30:06.987Z,101812.16
2022-10-21T07:32:35.436Z,101810.00
2022-10-21T07:35:03.866Z,101806.66
2022-10-21T07:37:31.874Z,101815.25
2022-10-21T07:40:01.646Z,101817.91
2022-10-21T07:42:30.281Z,101816.22
2022-10-21T07:45:01.324Z,101814.50
2022-10-21T07:47:29.537Z,101801.84
2022-10-21T07:49:57.853Z,101796.78
2022-10-21T07:52:26.042Z,101798.22
2022-10-21T07:54:54.263Z,101791.38
2022-10-21T07:57:24.239Z,101795.03
2022-10-21T07:59:52.331Z,101791.91
2022-10-21T08:02:21.021Z,101783.84
2022-10-21T08:04:49.086Z,101785.00
2022-10-21T08:07:17.063Z,101781.22
2022-10-21T08:09:45.052Z,101787.00
2022-10-21T08:12:15.268Z,101793.00
2022-10-21T08:14:45.117Z,101790.50
2022-10-21T08:17:13.267Z,101797.88
2022-10-21T08:19:41.693Z,101797.38
2022-10-21T08:22:10.011Z,101797.53
2022-10-21T08:24:41.398Z,101790.53
2022-10-21T08:27:10.597Z,101790.91
2022-10-21T08:29:40.070Z,101785.41
2022-10-21T08:32:10.346Z,101783.72
2022-10-21T08:34:38.435Z,101775.69
2022-10-21T08:37:06.506Z,101780.81
2022-10-21T08:39:34.491Z,101773.50
2022-10-21T08:42:08.757Z,101771.34
2022-10-21T08:44:46.120Z,101772.53
2022-10-21T08:47:23.541Z,101764.22
2022-10-21T08:49:58.054Z,101764.50
2022-10-21T08:52:32.540Z,101765.72
2022-10-21T08:55:03.033Z,101761.97
2022-10-21T08:57:34.706Z,101764.59
2022-10-21T09:00:03.816Z,101761.72
2022-10-21T09:03:00.341Z,101761.16
2022-10-21T09:05:47.084Z,101772.38
2022-10-21T09:08:24.492Z,101773.09
2022-10-21T09:11:03.695Z,101787.06
2022-10-21T09:13:57.130Z,101777.38
2022-10-21T09:16:34.817Z,101761.81
2022-10-21T09:19:17.588Z,101760.00
2022-10-21T09:22:16.350Z,101747.75
2022-10-21T09:24:53.870Z,101755.94
2022-10-21T09:27:32.337Z,101747.75
2022-10-21T09:30:17.830Z,101753.06
2022-10-21T09:32:50.866Z,101748.31
2022-10-21T09:35:32.062Z,101748.59
2022-10-21T09:38:04.801Z,101746.72
2022-10-21T09:40:34.144Z,101744.44
2022-10-21T09:43:02.712Z,101736.00
2022-10-21T09:45:35.318Z,101738.72
2022-10-21T09:48:06.636Z,101730.25
2022-10-21T09:50:37.134Z,101741.09
2022-10-21T09:53:10.753Z,101732.91
2022-10-21T09:55:40.819Z,101725.09
2022-10-21T09:58:09.532Z,101717.13
2022-10-21T10:00:44.066Z,101718.31
2022-10-21T10:03:12.232Z,101715.47
2022-10-21T10:05:48.273Z,101709.00
2022-10-21T10:08:30.613Z,101703.19
2022-10-21T10:11:15.595Z,101701.50
2022-10-21T10:13:46.201Z,101693.34
2022-10-21T10:16:17.773Z,101693.34
2022-10-21T10:18:46.778Z,101693.66
2022-10-21T10:21:17.889Z,101690.53
2022-10-21T10:23:51.042Z,101690.31
2022-10-21T10:26:27.719Z,101685.84
2022-10-21T10:28:58.766Z,101670.59
2022-10-21T10:31:33.696Z,101676.59
2022-10-21T10:34:05.103Z,101665.34
2022-10-21T10:36:37.839Z,101668.50
2022-10-21T10:39:09.506Z,101663.88
2022-10-21T10:41:40.757Z,101656.31
2022-10-21T10:44:23.899Z,101655.69
2022-10-21T10:46:56.899Z,101645.19
2022-10-21T10:49:26.435Z,101648.66
2022-10-21T10:52:21.236Z,101646.78
2022-10-21T10:54:50.312Z,101643.81
2022-10-21T10:57:26.531Z,101650.28
2022-10-21T11:00:07.209Z,101638.34
2022-10-21T11:02:42.585Z,101630.34
2022-10-21T11:05:20.495Z,101627.53
2022-10-21T11:07:53.050Z,101623.72
2022-10-21T11:10:46.475Z,101630.47
2022-10-21T11:13:17.891Z,101631.09
2022-10-21T11:15:57.998Z,101617.09
2022-10-21T11:18:34.810Z,101626.47
2022-10-21T11:21:15.742Z,101613.75
2022-10-21T11:24:06.555Z,101613.34
2022-10-21T11:26:46.572Z,101611.50
2022-10-21T11:29:29.508Z,101611.13
2022-10-21T11:32:12.361Z,101607.94
2022-10-21T11:34:51.820Z,101595.19
2022-10-21T11:37:34.963Z,101607.47
2022-10-21T11:40:19.207Z,101602.38
2022-10-21T11:42:50.102Z,101597.84
2022-10-21T11:45:36.714Z,101600.47
2022-10-21T11:48:16.478Z,101596.44
2022-10-21T11:50:51.823Z,101591.53
2022-10-21T11:53:33.551Z,101587.53
2022-10-21T11:56:14.642Z,101579.03
2022-10-21T11:58:53.559Z,101573.53
2022-10-21T12:01:31.416Z,101574.22
2022-10-21T12:04:21.690Z,101571.41
2022-10-21T12:06:59.028Z,101572.16
2022-10-21T12:09:33.987Z,101564.72
2022-10-21T12:12:07.968Z,101568.03
2022-10-21T12:14:41.225Z,101566.53
2022-10-21T12:17:14.574Z,101553.44
2022-10-21T12:19:46.017Z,101533.00
2022-10-21T12:22:15.013Z,101540.34
2022-10-21T12:24:51.308Z,101544.78
2022-10-21T12:27:26.830Z,101529.69
2022-10-21T12:30:04.339Z,101540.94
2022-10-21T12:32:41.351Z,101541.16
2022-10-21T12:35:14.412Z,101535.59
2022-10-21T12:38:05.619Z,101536.53
2022-10-21T12:40:40.097Z,101533.28
2022-10-21T12:43:20.014Z,101543.47
2022-10-21T12:46:02.207Z,101537.63
2022-10-21T12:48:35.158Z,101531.16
2022-10-21T12:51:07.039Z,101530.16
2022-10-21T12:53:41.921Z,101532.59
2022-10-21T12:56:12.224Z,101534.69
2022-10-21T12:58:46.319Z,101521.66
2022-10-21T13:01:38.924Z,101526.47
2022-10-21T13:04:27.547Z,101527.84
2022-10-21T13:06:57.464Z,101532.00
2022-10-21T13:09:41.309Z,101524.88
2022-10-21T13:12:18.647Z,101526.31
2022-10-21T13:14:50.534Z,101532.88
2022-10-21T13:17:55.072Z,101526.88
2022-10-21T13:20:58.747Z,101524.44
2022-10-21T13:23:38.722Z,101525.94
2022-10-21T13:26:24.297Z,101522.91
2022-10-21T13:29:06.907Z,101518.81
2022-10-21T13:31:36.524Z,101516.84
2022-10-21T13:34:05.642Z,101517.81
2022-10-21T13:36:42.891Z,101514.88
2022-10-21T13:39:27.308Z,101513.94
2022-10-21T13:42:02.134Z,101523.69
2022-10-21T13:44:35.916Z,101518.16
2022-10-21T13:47:26.938Z,101514.88
2022-10-21T13:49:57.072Z,101516.56
2022-10-21T13:52:29.093Z,101517.66
2022-10-21T13:55:01.158Z,101524.34
2022-10-21T13:57:33.852Z,101519.53
2022-10-21T14:00:03.236Z,101510.63
2022-10-21T14:02:32.833Z,101515.13
2022-10-21T14:05:01.213Z,101511.13
2022-10-21T14:07:30.046Z,101521.84
2022-10-21T14:10:00.180Z,101528.56
2022-10-21T14:12:32.925Z,101506.06
2022-10-21T14:15:06.604Z,101516.06
2022-10-21T14:17:41.853Z,101513.47
2022-10-21T14:20:17.339Z,101516.53
2022-10-21T14:22:49.932Z,101519.81
2022-10-21T14:25:20.230Z,101514.44
2022-10-21T14:27:49.036Z,101513.16
2022-10-21T14:30:22.459Z,101527.66
2022-10-21T14:32:54.403Z,101526.16
2022-10-21T14:35:28.816Z,101529.03
2022-10-21T14:37:58.679Z,101524.47
2022-10-21T14:40:32.292Z,101523.63
2022-10-21T14:43:02.246Z,101519.59
2022-10-21T14:45:33.402Z,101521.00
2022-10-21T14:48:25.236Z,101515.06
2022-10-21T14:50:55.249Z,101510.38
2022-10-21T14:53:25.599Z,101517.06
2022-10-21T14:55:57.229Z,101507.25
2022-10-21T14:58:30.132Z,101515.91
2022-10-21T15:01:00.215Z,101512.34
2022-10-21T15:03:41.160Z,101507.13
2022-10-21T15:06:11.914Z,101510.47
2022-10-21T15:08:42.528Z,101518.97
2022-10-21T15:11:35.774Z,101525.22
2022-10-21T15:14:22.288Z,101533.47
2022-10-21T15:16:54.459Z,101525.28
2022-10-21T15:19:27.463Z,101514.75
2022-10-21T15:21:59.353Z,101520.34
2022-10-21T15:24:36.723Z,101513.53
2022-10-21T15:27:06.032Z,101529.22
2022-10-21T15:29:38.615Z,101528.78
2022-10-21T15:32:07.672Z,101533.91
2022-10-21T15:34:37.271Z,101543.22
2022-10-21T15:37:07.451Z,101531.84
2022-10-21T15:39:35.800Z,101535.16
2022-10-21T15:42:03.873Z,101539.34
2022-10-21T15:44:33.759Z,101547.25
2022-10-21T15:47:05.745Z,101547.94
2022-10-21T15:49:38.105Z,101542.50
2022-10-21T15:52:06.782Z,101544.88
2022-10-21T15:54:35.650Z,101549.59
2022-10-21T15:57:09.191Z,101544.81
2022-10-21T15:59:37.884Z,101542.63
2022-10-21T16:04:40.828Z,101535.28
2022-10-21T16:07:19.154Z,101543.34
2022-10-21T16:09:47.451Z,101544.00
2022-10-21T16:12:17.689Z,101551.56
2022-10-21T16:14:45.998Z,101543.47
2022-10-21T16:17:14.833Z,101547.31
2022-10-21T16:19:44.291Z,101548.69
2022-10-21T16:22:17.171Z,101551.78
2022-10-21T16:24:45.223Z,101532.16
2022-10-21T16:27:14.527Z,101554.53
2022-10-21T16:29:48.093Z,101556.69
2022-10-21T16:32:16.095Z,101550.06
2022-10-21T16:34:45.464Z,101553.91
2022-10-21T16:37:24.347Z,101551.91
2022-10-21T16:39:52.359Z,101549.75
2022-10-21T16:42:20.308Z,101546.81
2022-10-21T16:44:49.903Z,101548.81
2022-10-21T16:47:20.217Z,101541.53
2022-10-21T16:49:50.535Z,101542.09
2022-10-21T16:52:19.014Z,101535.47
2022-10-21T16:54:48.860Z,101541.81
2022-10-21T16:57:17.029Z,101552.22
2022-10-21T16:59:45.251Z,101550.75
2022-10-21T17:02:18.088Z,101548.38
2022-10-21T17:04:47.184Z,101541.13
2022-10-21T17:07:17.083Z,101554.06
2022-10-21T17:09:45.027Z,101548.94
2022-10-21T17:12:13.273Z,101548.44
2022-10-21T17:14:41.445Z,101549.63
2022-10-21T17:17:09.451Z,101555.31
2022-10-21T17:19:37.795Z,101551.88
2022-10-21T17:22:05.920Z,101557.69
2022-10-21T17:24:35.244Z,101550.53
2022-10-21T17:27:03.298Z,101549.63
2022-10-21T17:29:31.454Z,101550.66
2022-10-21T17:31:59.739Z,101547.28
2022-10-21T17:34:30.216Z,101540.69
2022-10-21T17:36:58.698Z,101544.97
2022-10-21T17:39:27.058Z,101543.34
2022-10-21T17:41:56.727Z,101542.63
2022-10-21T17:44:24.900Z,101541.84
2022-10-21T17:46:54.772Z,101538.50
2022-10-21T17:49:23.232Z,101531.53
2022-10-21T17:51:51.541Z,101539.25
2022-10-21T17:54:24.143Z,101537.50
2022-10-21T17:56:58.016Z,101527.63
2022-10-21T17:59:26.907Z,101533.38
2022-10-21T18:01:54.994Z,101538.59
2022-10-21T18:04:23.174Z,101535.22
2022-10-21T18:06:51.253Z,101541.78
2022-10-21T18:09:19.414Z,101544.75
2022-10-21T18:11:48.134Z,101548.47
2022-10-21T18:14:17.834Z,101547.81
2022-10-21T18:16:46.240Z,101542.97
2022-10-21T18:19:14.602Z,101538.19
2022-10-21T18:21:42.684Z,101534.84
2022-10-21T18:24:12.674Z,101542.91
2022-10-21T18:26:41.125Z,101534.19
2022-10-21T18:29:09.652Z,101536.78
2022-10-21T18:31:39.813Z,101543.09
2022-10-21T18:34:09.474Z,101538.97
2022-10-21T18:36:37.953Z,101533.16
2022-10-21T18:39:06.881Z,101536.13
2022-10-21T18:41:35.448Z,101539.19
2022-10-21T18:44:08.369Z,101540.47
2022-10-21T18:46:36.990Z,101551.81
2022-10-21T18:49:08.240Z,101544.34
2022-10-21T18:51:36.302Z,101535.78
2022-10-21T18:54:05.330Z,101541.19
2022-10-21T18:56:33.386Z,101539.19
2022-10-21T18:59:01.791Z,101540.94
2022-10-21T19:01:30.234Z,101550.81
2022-10-21T19:03:58.933Z,101553.28
2022-10-21T19:06:37.818Z,101539.53
2022-10-21T19:09:09.936Z,101547.66
2022-10-21T19:11:37.961Z,101558.28
2022-10-21T19:14:08.464Z,101550.34
2022-10-21T19:16:40.039Z,101548.25
2022-10-21T19:19:09.298Z,101553.38
2022-10-21T19:21:39.267Z,101552.47
2022-10-21T19:24:08.135Z,101555.97
2022-10-21T19:26:38.148Z,101554.69
2022-10-21T19:29:08.160Z,101561.13
2022-10-21T19:31:38.521Z,101559.47
2022-10-21T19:34:07.068Z,101565.22
2022-10-21T19:36:35.392Z,101554.94
2022-10-21T19:39:05.414Z,101554.28
2022-10-21T19:41:33.366Z,101548.94
2022-10-21T19:44:01.576Z,101552.13
2022-10-21T19:46:31.283Z,101526.59
2022-10-21T19:49:01.430Z,101551.22
2022-10-21T19:51:29.390Z,101550.00
2022-10-21T19:53:57.858Z,101543.00
2022-10-21T19:56:32.000Z,101554.16
2022-10-21T19:59:02.941Z,101545.16
2022-10-21T20:01:31.961Z,101538.06
2022-10-21T20:04:02.084Z,101540.31
2022-10-21T20:06:32.086Z,101542.66
2022-10-21T20:09:02.388Z,101525.25
2022-10-21T20:11:32.278Z,101537.78
2022-10-21T20:14:00.442Z,101531.63
2022-10-21T20:16:30.858Z,101536.53
2022-10-21T20:18:59.354Z,101529.53
2022-10-21T20:21:28.329Z,101524.03
2022-10-21T20:23:58.055Z,101534.41
2022-10-21T20:26:26.682Z,101527.06
2022-10-21T20:28:56.342Z,101524.31
2022-10-21T20:31:25.222Z,101531.34
2022-10-21T20:33:53.744Z,101527.06
2022-10-21T20:36:23.927Z,101522.50
2022-10-21T20:38:53.285Z,101518.06
2022-10-21T20:41:23.172Z,101521.22
2022-10-21T20:43:52.362Z,101526.16
2022-10-21T20:46:24.654Z,101516.47
2022-10-21T20:48:54.480Z,101529.25
2022-10-21T20:51:25.421Z,101513.94
2022-10-21T20:53:56.830Z,101508.94
2022-10-21T20:56:28.005Z,101506.34
2022-10-21T20:58:56.664Z,101517.13
2022-10-21T21:01:28.189Z,101507.59
2022-10-21T21:03:58.268Z,101504.38
2022-10-21T21:06:27.478Z,101505.91
2022-10-21T21:09:25.710Z,101511.78
2022-10-21T21:11:43.547Z,101497.09
2022-10-21T21:14:11.674Z,101491.69
2022-10-21T21:16:41.222Z,101496.56
2022-10-21T21:19:12.334Z,101492.09
2022-10-21T21:21:41.018Z,101484.38
2022-10-21T21:24:09.304Z,101486.06
2022-10-21T21:26:39.603Z,101468.88
2022-10-21T21:29:09.895Z,101487.47
2022-10-21T21:31:40.782Z,101483.59
2022-10-21T21:34:09.474Z,101480.81
2022-10-21T21:36:37.949Z,101483.22
2022-10-21T21:39:06.853Z,101463.28
2022-10-21T21:41:36.533Z,101478.34
2022-10-21T21:44:06.384Z,101481.66
2022-10-21T21:46:34.590Z,101480.94
2022-10-21T21:49:06.366Z,101471.16
2022-10-21T21:51:36.145Z,101475.78
2022-10-21T21:54:07.830Z,101473.16
2022-10-21T21:56:36.177Z,101484.75
2022-10-21T21:59:04.253Z,101479.34
2022-10-21T22:01:32.391Z,101486.25
2022-10-21T22:04:02.075Z,101477.91
2022-10-21T22:06:33.340Z,101483.31
2022-10-21T22:09:02.345Z,101482.41
2022-10-21T22:11:32.357Z,101485.88
2022-10-21T22:14:00.844Z,101448.84
2022-10-21T22:16:30.417Z,101486.56
2022-10-21T22:18:59.983Z,101486.41
2022-10-21T22:21:28.353Z,101480.00
2022-10-21T22:23:57.884Z,101480.25
2022-10-21T22:26:27.227Z,101475.63
2022-10-21T22:28:55.855Z,101460.13
2022-10-21T22:31:29.177Z,101458.56
2022-10-21T22:33:59.532Z,101461.75
2022-10-21T22:36:27.602Z,101454.53
2022-10-21T22:38:55.617Z,101460.28
2022-10-21T22:41:25.060Z,101458.00
2022-10-21T22:43:53.087Z,101459.38
2022-10-21T22:49:11.125Z,101461.47
2022-10-21T22:51:39.249Z,101450.56
2022-10-21T22:54:15.164Z,101462.97
2022-10-21T22:56:48.997Z,101455.44
2022-10-21T22:59:17.069Z,101459.91
2022-10-21T23:01:45.150Z,101452.53
2022-10-21T23:04:13.217Z,101449.78
2022-10-21T23:06:42.306Z,101452.94
2022-10-21T23:09:10.359Z,101443.63
2022-10-21T23:11:38.546Z,101456.75
2022-10-21T23:14:09.639Z,101450.75
2022-10-21T23:16:38.647Z,101445.06
2022-10-21T23:19:08.692Z,101456.97
2022-10-21T23:21:37.494Z,101460.06
2022-10-21T23:24:06.647Z,101463.03
2022-10-21T23:26:35.877Z,101458.66
2022-10-21T23:29:04.304Z,101458.19
2022-10-21T23:31:33.893Z,101458.03
2022-10-21T23:34:03.185Z,101448.78
2022-10-21T23:36:31.358Z,101421.69
2022-10-21T23:38:59.578Z,101446.75
2022-10-21T23:41:27.938Z,101444.28
2022-10-21T23:43:56.165Z,101450.03
2022-10-21T23:46:25.377Z,101436.34
2022-10-21T23:48:54.884Z,101438.50
2022-10-21T23:51:23.109Z,101430.13
2022-10-21T23:53:51.188Z,101437.63
2022-10-21T23:56:19.254Z,101414.13
2022-10-21T23:58:47.326Z,101436.47
